A- A+ FrançaisEnglishEspañol中国

最近的 SKBQ BarranquillaLFBT Tarbes-Lourdes-PyrénéesLIMJ Genova SestriSOCA CayenneHLLQ El BeidaLFAG Peronne-Saint-Quentin

飞行员的航空天气,使用METAR(气象机场报告)进行的飞行准备和TAF(终端机场预报:针对以下情况的短期天气预报)航空)。 以及其他资源,例如VAC(目视进近图)和NOTAM(通知飞行员)以进行预试飞行.

METAR, TAF, VAC, NOTAM Flying Cloud机场 (美国) / OACI KFCM/ IATA FCM

它位于附近 Minneapolis, Eden Prairie 在 3.2 km, Rowland 在 4.4 km, Shakopee 在 6.4 km, Chanhassen 在 7 km, Minnetonka 在 10 km, Hopkins 在 11 km, Savage 在 11 km, Edina 在 11 km, Excelsior 在 12 km, Chaska 在 12 km,

机场的高度为 Flying Cloud机场的

276 m = 906 ft

跑道 Flying Cloud机场的

附近的机场Flying Cloud机场的

目前的天气 Flying Cloud机场的 - KFCM

ciel dégagé
17°C

Vent 11 km/h

可提供5天天气预报 Eden Prairie 在 3.2 km, Rowland 在 4.4 km, Shakopee 在 6.4 km, Chanhassen 在 7 km, Minnetonka 在 10 km, Hopkins 在 11 km, Savage 在 11 km, Edina 在 11 km, Excelsior 在 12 km, Chaska 在 12 km,

METAR Flying Cloud机场的 - KFCM

KFCM 171053Z AUTO 36006KT 10SM CLR 17/13 A3007 RMK AO2 SLP179 T01720133

Flying Cloud机场METAR解码 (美国)

KFCM机场发行的METAR日期2020年08月17日至10:53 GMT. 这是一个自动生成的METAR, 警告:此METAR已过期, 已于 33 天 11 小时 9 分钟.

可见度为16.1 km = 10 sm.

温度为17°C = 63 °F 露点为13°C = 55 °F 。 这相当于77%的相对湿度。.

QNH是1018 hPa = 30.06 inHg

的风6 kt = 11 km/h, 风向为360°.

天空晴朗

备注 AO2 SLP179 T01720133

TAF Flying Cloud机场的 - KFCM

没有TAF

Flying Cloud机场的NOTAM

提供的NOTAM不能保证其时事性。 在将其用于飞行准备或在飞行期间使用之前,飞行员是唯一负责验证其有效性的人员。

没有通知

数据源